Roland, IA (50236)

6:49 AM CDT on October 31, 2014 (GMT -0500)
Garden District | Change Station
CLOSE
Current Station
Personal Weather Station
Location: Ames, IA
Elevation: 968 ft
Nearby Weather Stations

Elev 968 ft 42.04 °N, 93.61 °W | Updated 3 minutes ago

Clear
Clear
27.3 °F
Feels Like 18 °F
N
9.8
Wind Variable Wind from NW
Gusts 11.4 mph

Today
High -- | Low -- °F
--% Chance of Precip.
Yesterday
High -- | Low -- °F
Precip. -- in
7:45 AM 6:08 PM
First Quarter, 54% visible
Pressure 30.45 in
Visibility 10.0 miles
Clouds Clear
Windchill 18 °F
Dew Point 12 °F
Humidity 51%
Rainfall 0.00 in
Snow Depth Not available.
UV 0 out of 12
Pollen .10 out of 12
Air Quality Not available.
Flu Activity Not available.
METAR KAMW 311053Z AUTO 35016G22KT 10SM CLR M02/M08 A3043 RMK AO2 SLP310 T10171078

More Conditions Fewer Conditions

Pressure 30.45 in
Visibility 10.0 miles
Clouds Clear
Windchill 18 °F
Dew Point 12 °F
Humidity 51%
Rainfall 0.00 in
Snow Depth Not available.
UV 0 out of 12
Pollen .10 out of 12
Air Quality Not available.
Flu Activity Not available.
METAR KAMW 311053Z AUTO 35016G22KT 10SM CLR M02/M08 A3043 RMK AO2 SLP310 T10171078

More Conditions Fewer Conditions

10-Day Weather Forecast

Almanac

Astronomy

Oct. 31, 2014 Rise Set
Actual Time
Civil Twilight
Nautical Twilight
Astronomical Twilight
Moon
Length of Visible Light
Length of Day
Tomorrow will be .
, % of the Moon is Illuminated

Today's Extremes

State Highs State Lows

Community

WunderPhotos

Upload Photos

1,766,581 photos uploaded!

WunderBlogs® & News

Nearby

Air Quality

  Air Quality AQ Index Pollutant
Not available.

Snow Depth

Station Depth Elevation

Earthquake Activity

City Distance Mag. Time & Date
Minimum magnitude displayed is 2.5.

Coastal Water Temperatures

Place Temperature

Nearby Weather Stations